Bassano, Canada
Current Conditions -  °F | °C
As of 10:00 AM on Thursday 27 Nov 2014 (Local Time) from CYYC Reporting Station
Freezing Drizzle Freezing Drizzle  
Wind Chill: 13°   Ceiling: 500
Heat Index: 23°   Visibility: 1.2mi
Dew Point: 21°   Wind: 9mph
Humidity: 93%   Direction: 40°NE
Pressure: 29.75"   Gusts: NA
Location:  50.78°N, 112.47°W
Report Text: CYYC 271700Z 04008KT 1 1/4SM -FZDZ BR OVC005 M05/M06 A2975 RMK FG4ST4 RIME ON INDCTR / CIG VRB 003-007 SLP129
Loading
Personal Weather Stations






























Interactive Weather Map New forecast layout! Learn more

10-Day Weather Forecast

Advertisements
Track Severe Weather on mobile